sensor_id;sensor_type;location;lat;lon;timestamp;P1;durP1;ratioP1;P2;durP2;ratioP2
26269;SDS011;15937;50.612;6.656;2023-04-16T00:02:04;7.07;;;4.47;;
26269;SDS011;15937;50.612;6.656;2023-04-16T00:06:09;7.37;;;4.37;;
26269;SDS011;15937;50.612;6.656;2023-04-16T00:10:12;8.32;;;4.63;;
26269;SDS011;15937;50.612;6.656;2023-04-16T00:14:14;9.32;;;4.15;;
26269;SDS011;15937;50.612;6.656;2023-04-16T00:18:16;17.25;;;5.28;;
26269;SDS011;15937;50.612;6.656;2023-04-16T00:22:18;17.83;;;7.30;;
26269;SDS011;15937;50.612;6.656;2023-04-16T00:26:20;21.73;;;7.33;;
26269;SDS011;15937;50.612;6.656;2023-04-16T00:30:22;13.60;;;6.72;;
26269;SDS011;15937;50.612;6.656;2023-04-16T00:34:23;11.40;;;6.55;;
26269;SDS011;15937;50.612;6.656;2023-04-16T00:38:25;28.15;;;6.30;;
26269;SDS011;15937;50.612;6.656;2023-04-16T00:42:30;14.75;;;6.22;;
26269;SDS011;15937;50.612;6.656;2023-04-16T00:46:32;11.13;;;6.30;;
26269;SDS011;15937;50.612;6.656;2023-04-16T00:50:35;9.20;;;5.60;;
26269;SDS011;15937;50.612;6.656;2023-04-16T00:54:37;18.83;;;6.38;;
26269;SDS011;15937;50.612;6.656;2023-04-16T00:58:39;14.10;;;8.00;;
26269;SDS011;15937;50.612;6.656;2023-04-16T01:02:41;14.23;;;8.25;;
26269;SDS011;15937;50.612;6.656;2023-04-16T01:06:43;10.98;;;6.47;;
26269;SDS011;15937;50.612;6.656;2023-04-16T01:10:45;12.35;;;5.55;;
26269;SDS011;15937;50.612;6.656;2023-04-16T01:14:47;14.30;;;5.85;;
26269;SDS011;15937;50.612;6.656;2023-04-16T01:18:49;13.07;;;8.07;;
26269;SDS011;15937;50.612;6.656;2023-04-16T01:22:51;11.60;;;6.25;;
26269;SDS011;15937;50.612;6.656;2023-04-16T01:26:53;15.50;;;7.72;;
26269;SDS011;15937;50.612;6.656;2023-04-16T01:30:55;14.82;;;7.38;;
26269;SDS011;15937;50.612;6.656;2023-04-16T01:34:56;18.60;;;6.05;;
26269;SDS011;15937;50.612;6.656;2023-04-16T01:38:58;17.10;;;7.15;;
26269;SDS011;15937;50.612;6.656;2023-04-16T01:43:00;13.73;;;5.05;;
26269;SDS011;15937;50.612;6.656;2023-04-16T01:47:01;32.67;;;7.93;;
26269;SDS011;15937;50.612;6.656;2023-04-16T01:51:04;15.85;;;8.30;;
26269;SDS011;15937;50.612;6.656;2023-04-16T01:55:06;16.23;;;7.18;;
26269;SDS011;15937;50.612;6.656;2023-04-16T01:59:08;16.42;;;6.53;;
26269;SDS011;15937;50.612;6.656;2023-04-16T02:03:11;30.30;;;7.38;;
26269;SDS011;15937;50.612;6.656;2023-04-16T02:07:13;18.58;;;6.65;;
26269;SDS011;15937;50.612;6.656;2023-04-16T02:11:17;30.85;;;7.22;;
26269;SDS011;15937;50.612;6.656;2023-04-16T02:15:19;13.13;;;6.50;;
26269;SDS011;15937;50.612;6.656;2023-04-16T02:19:21;12.55;;;6.18;;
26269;SDS011;15937;50.612;6.656;2023-04-16T02:23:23;15.57;;;6.65;;
26269;SDS011;15937;50.612;6.656;2023-04-16T02:27:25;14.27;;;5.30;;
26269;SDS011;15937;50.612;6.656;2023-04-16T02:31:27;18.25;;;6.45;;
26269;SDS011;15937;50.612;6.656;2023-04-16T02:35:29;12.95;;;6.30;;
26269;SDS011;15937;50.612;6.656;2023-04-16T02:39:30;14.85;;;5.72;;
26269;SDS011;15937;50.612;6.656;2023-04-16T02:43:32;20.13;;;7.63;;
26269;SDS011;15937;50.612;6.656;2023-04-16T02:47:34;12.65;;;7.25;;
26269;SDS011;15937;50.612;6.656;2023-04-16T02:51:36;15.55;;;6.82;;
26269;SDS011;15937;50.612;6.656;2023-04-16T02:55:37;18.63;;;7.43;;
26269;SDS011;15937;50.612;6.656;2023-04-16T02:59:39;8.73;;;5.93;;
26269;SDS011;15937;50.612;6.656;2023-04-16T03:03:41;15.18;;;6.13;;
26269;SDS011;15937;50.612;6.656;2023-04-16T03:07:43;13.20;;;5.95;;
26269;SDS011;15937;50.612;6.656;2023-04-16T03:11:44;13.20;;;7.13;;
26269;SDS011;15937;50.612;6.656;2023-04-16T03:15:47;20.25;;;6.40;;
26269;SDS011;15937;50.612;6.656;2023-04-16T03:19:50;17.90;;;6.75;;
26269;SDS011;15937;50.612;6.656;2023-04-16T03:23:51;20.13;;;7.55;;
26269;SDS011;15937;50.612;6.656;2023-04-16T03:27:54;33.07;;;7.13;;
26269;SDS011;15937;50.612;6.656;2023-04-16T03:32:03;15.38;;;7.60;;
26269;SDS011;15937;50.612;6.656;2023-04-16T03:36:28;43.28;;;7.13;;
26269;SDS011;15937;50.612;6.656;2023-04-16T03:40:31;45.28;;;8.73;;
26269;SDS011;15937;50.612;6.656;2023-04-16T03:44:33;29.33;;;6.93;;
26269;SDS011;15937;50.612;6.656;2023-04-16T03:48:35;33.60;;;8.13;;
26269;SDS011;15937;50.612;6.656;2023-04-16T03:52:37;47.80;;;7.70;;
26269;SDS011;15937;50.612;6.656;2023-04-16T03:56:39;67.68;;;11.45;;
26269;SDS011;15937;50.612;6.656;2023-04-16T04:00:45;28.55;;;8.55;;
26269;SDS011;15937;50.612;6.656;2023-04-16T04:04:54;38.78;;;8.23;;
26269;SDS011;15937;50.612;6.656;2023-04-16T04:08:59;37.97;;;10.00;;
26269;SDS011;15937;50.612;6.656;2023-04-16T04:13:01;29.02;;;9.75;;
26269;SDS011;15937;50.612;6.656;2023-04-16T04:17:04;24.98;;;9.15;;
26269;SDS011;15937;50.612;6.656;2023-04-16T04:21:07;20.37;;;9.23;;
26269;SDS011;15937;50.612;6.656;2023-04-16T04:25:09;21.15;;;9.07;;
26269;SDS011;15937;50.612;6.656;2023-04-16T04:29:12;16.50;;;8.20;;
26269;SDS011;15937;50.612;6.656;2023-04-16T04:33:13;36.90;;;8.52;;
26269;SDS011;15937;50.612;6.656;2023-04-16T04:37:15;73.03;;;12.98;;
26269;SDS011;15937;50.612;6.656;2023-04-16T04:41:17;51.22;;;10.30;;
26269;SDS011;15937;50.612;6.656;2023-04-16T04:45:19;39.40;;;10.75;;
26269;SDS011;15937;50.612;6.656;2023-04-16T04:49:21;21.57;;;9.20;;
26269;SDS011;15937;50.612;6.656;2023-04-16T04:53:23;44.03;;;10.40;;
26269;SDS011;15937;50.612;6.656;2023-04-16T04:57:25;27.90;;;8.15;;
26269;SDS011;15937;50.612;6.656;2023-04-16T05:01:27;42.75;;;9.05;;
26269;SDS011;15937;50.612;6.656;2023-04-16T05:05:28;66.40;;;12.05;;
26269;SDS011;15937;50.612;6.656;2023-04-16T05:09:30;59.80;;;9.68;;
26269;SDS011;15937;50.612;6.656;2023-04-16T05:13:32;31.60;;;9.35;;
26269;SDS011;15937;50.612;6.656;2023-04-16T05:17:36;20.45;;;7.93;;
26269;SDS011;15937;50.612;6.656;2023-04-16T05:21:39;18.63;;;7.20;;
26269;SDS011;15937;50.612;6.656;2023-04-16T05:25:40;15.32;;;7.63;;
26269;SDS011;15937;50.612;6.656;2023-04-16T05:29:42;16.77;;;7.47;;
26269;SDS011;15937;50.612;6.656;2023-04-16T05:33:44;17.48;;;8.68;;
26269;SDS011;15937;50.612;6.656;2023-04-16T05:37:45;23.65;;;9.55;;
26269;SDS011;15937;50.612;6.656;2023-04-16T05:41:47;20.88;;;7.43;;
26269;SDS011;15937;50.612;6.656;2023-04-16T05:45:49;13.82;;;7.32;;
26269;SDS011;15937;50.612;6.656;2023-04-16T05:49:51;12.45;;;6.38;;
26269;SDS011;15937;50.612;6.656;2023-04-16T05:53:53;10.07;;;5.90;;
26269;SDS011;15937;50.612;6.656;2023-04-16T05:57:54;20.05;;;10.05;;
26269;SDS011;15937;50.612;6.656;2023-04-16T06:01:56;16.60;;;7.15;;
26269;SDS011;15937;50.612;6.656;2023-04-16T06:05:58;24.83;;;8.30;;
26269;SDS011;15937;50.612;6.656;2023-04-16T06:10:00;21.63;;;11.00;;
26269;SDS011;15937;50.612;6.656;2023-04-16T06:14:02;24.55;;;7.55;;
26269;SDS011;15937;50.612;6.656;2023-04-16T06:18:03;26.38;;;8.63;;
26269;SDS011;15937;50.612;6.656;2023-04-16T06:22:06;16.20;;;7.50;;
26269;SDS011;15937;50.612;6.656;2023-04-16T06:26:08;14.50;;;6.17;;
26269;SDS011;15937;50.612;6.656;2023-04-16T06:30:10;20.50;;;6.88;;
26269;SDS011;15937;50.612;6.656;2023-04-16T06:34:13;12.85;;;6.47;;
26269;SDS011;15937;50.612;6.656;2023-04-16T06:38:15;6.32;;;3.92;;
26269;SDS011;15937;50.612;6.656;2023-04-16T06:42:17;37.80;;;9.88;;
26269;SDS011;15937;50.612;6.656;2023-04-16T06:46:18;26.52;;;7.60;;
26269;SDS011;15937;50.612;6.656;2023-04-16T06:50:20;14.88;;;6.30;;
26269;SDS011;15937;50.612;6.656;2023-04-16T06:54:23;11.52;;;4.75;;
26269;SDS011;15937;50.612;6.656;2023-04-16T06:58:25;20.48;;;5.65;;
26269;SDS011;15937;50.612;6.656;2023-04-16T07:02:27;14.23;;;5.87;;
26269;SDS011;15937;50.612;6.656;2023-04-16T07:06:30;21.88;;;6.78;;
26269;SDS011;15937;50.612;6.656;2023-04-16T07:10:33;12.07;;;6.13;;
26269;SDS011;15937;50.612;6.656;2023-04-16T07:14:35;14.02;;;6.75;;
26269;SDS011;15937;50.612;6.656;2023-04-16T07:18:37;20.50;;;6.40;;
26269;SDS011;15937;50.612;6.656;2023-04-16T07:22:39;12.30;;;5.47;;
26269;SDS011;15937;50.612;6.656;2023-04-16T07:26:41;27.70;;;5.57;;
26269;SDS011;15937;50.612;6.656;2023-04-16T07:30:43;50.25;;;7.07;;
26269;SDS011;15937;50.612;6.656;2023-04-16T07:34:45;39.28;;;7.03;;
26269;SDS011;15937;50.612;6.656;2023-04-16T07:38:46;14.75;;;6.28;;
26269;SDS011;15937;50.612;6.656;2023-04-16T07:42:48;33.38;;;7.97;;
26269;SDS011;15937;50.612;6.656;2023-04-16T07:46:50;17.10;;;7.20;;
26269;SDS011;15937;50.612;6.656;2023-04-16T07:50:52;39.22;;;6.72;;
26269;SDS011;15937;50.612;6.656;2023-04-16T07:54:54;18.33;;;4.63;;
26269;SDS011;15937;50.612;6.656;2023-04-16T07:58:56;13.10;;;6.50;;
26269;SDS011;15937;50.612;6.656;2023-04-16T08:03:08;15.10;;;6.45;;
26269;SDS011;15937;50.612;6.656;2023-04-16T08:07:10;9.20;;;5.40;;
26269;SDS011;15937;50.612;6.656;2023-04-16T08:11:11;8.45;;;5.35;;
26269;SDS011;15937;50.612;6.656;2023-04-16T08:15:13;14.25;;;7.28;;
26269;SDS011;15937;50.612;6.656;2023-04-16T08:19:15;16.30;;;7.38;;
26269;SDS011;15937;50.612;6.656;2023-04-16T08:23:17;23.65;;;8.90;;
26269;SDS011;15937;50.612;6.656;2023-04-16T08:27:19;16.63;;;8.82;;
26269;SDS011;15937;50.612;6.656;2023-04-16T08:31:21;26.10;;;11.30;;
26269;SDS011;15937;50.612;6.656;2023-04-16T08:35:23;25.92;;;11.93;;
26269;SDS011;15937;50.612;6.656;2023-04-16T08:39:24;31.45;;;13.45;;
26269;SDS011;15937;50.612;6.656;2023-04-16T08:43:26;27.83;;;11.60;;
26269;SDS011;15937;50.612;6.656;2023-04-16T08:47:34;22.90;;;11.77;;
26269;SDS011;15937;50.612;6.656;2023-04-16T08:51:39;19.10;;;9.95;;
26269;SDS011;15937;50.612;6.656;2023-04-16T08:55:47;24.67;;;10.65;;
26269;SDS011;15937;50.612;6.656;2023-04-16T08:59:50;20.15;;;9.27;;
26269;SDS011;15937;50.612;6.656;2023-04-16T09:03:53;22.88;;;9.40;;
26269;SDS011;15937;50.612;6.656;2023-04-16T09:07:56;21.92;;;8.88;;
26269;SDS011;15937;50.612;6.656;2023-04-16T09:11:58;26.83;;;11.55;;
26269;SDS011;15937;50.612;6.656;2023-04-16T09:16:00;27.00;;;10.63;;
26269;SDS011;15937;50.612;6.656;2023-04-16T09:20:06;23.67;;;11.43;;
26269;SDS011;15937;50.612;6.656;2023-04-16T09:24:09;24.48;;;10.10;;
26269;SDS011;15937;50.612;6.656;2023-04-16T09:28:12;32.08;;;12.48;;
26269;SDS011;15937;50.612;6.656;2023-04-16T09:32:33;29.88;;;12.38;;
26269;SDS011;15937;50.612;6.656;2023-04-16T09:36:36;23.27;;;11.23;;
26269;SDS011;15937;50.612;6.656;2023-04-16T09:40:39;32.38;;;13.50;;
26269;SDS011;15937;50.612;6.656;2023-04-16T09:44:41;29.42;;;13.00;;
26269;SDS011;15937;50.612;6.656;2023-04-16T09:48:43;36.28;;;14.35;;
26269;SDS011;15937;50.612;6.656;2023-04-16T09:56:49;35.88;;;14.15;;
26269;SDS011;15937;50.612;6.656;2023-04-16T10:00:55;34.25;;;13.38;;
26269;SDS011;15937;50.612;6.656;2023-04-16T10:05:03;29.73;;;11.40;;
26269;SDS011;15937;50.612;6.656;2023-04-16T10:09:06;33.28;;;11.88;;
26269;SDS011;15937;50.612;6.656;2023-04-16T10:13:12;26.10;;;12.60;;
26269;SDS011;15937;50.612;6.656;2023-04-16T10:17:17;22.95;;;10.98;;
26269;SDS011;15937;50.612;6.656;2023-04-16T10:21:20;30.33;;;11.43;;
26269;SDS011;15937;50.612;6.656;2023-04-16T10:29:28;32.05;;;12.88;;
26269;SDS011;15937;50.612;6.656;2023-04-16T10:33:32;36.42;;;14.35;;
26269;SDS011;15937;50.612;6.656;2023-04-16T10:37:36;39.92;;;15.82;;
26269;SDS011;15937;50.612;6.656;2023-04-16T10:41:41;35.55;;;14.60;;
26269;SDS011;15937;50.612;6.656;2023-04-16T10:45:43;44.30;;;17.73;;
26269;SDS011;15937;50.612;6.656;2023-04-16T10:49:46;57.60;;;21.38;;
26269;SDS011;15937;50.612;6.656;2023-04-16T10:53:48;49.85;;;19.05;;
26269;SDS011;15937;50.612;6.656;2023-04-16T10:57:50;52.83;;;18.15;;
26269;SDS011;15937;50.612;6.656;2023-04-16T11:01:54;50.25;;;17.77;;
26269;SDS011;15937;50.612;6.656;2023-04-16T11:06:22;44.10;;;18.17;;
26269;SDS011;15937;50.612;6.656;2023-04-16T11:10:26;42.40;;;16.25;;
26269;SDS011;15937;50.612;6.656;2023-04-16T11:14:27;52.72;;;20.20;;
26269;SDS011;15937;50.612;6.656;2023-04-16T11:18:29;53.95;;;20.00;;
26269;SDS011;15937;50.612;6.656;2023-04-16T11:22:33;44.47;;;17.65;;
26269;SDS011;15937;50.612;6.656;2023-04-16T11:26:36;50.88;;;21.02;;
26269;SDS011;15937;50.612;6.656;2023-04-16T11:30:38;55.05;;;22.70;;
26269;SDS011;15937;50.612;6.656;2023-04-16T11:34:42;62.28;;;24.85;;
26269;SDS011;15937;50.612;6.656;2023-04-16T11:38:46;60.15;;;25.73;;
26269;SDS011;15937;50.612;6.656;2023-04-16T11:42:48;63.67;;;22.25;;
26269;SDS011;15937;50.612;6.656;2023-04-16T11:46:50;59.13;;;26.30;;
26269;SDS011;15937;50.612;6.656;2023-04-16T11:50:56;51.75;;;23.23;;
26269;SDS011;15937;50.612;6.656;2023-04-16T11:54:59;53.50;;;21.73;;
26269;SDS011;15937;50.612;6.656;2023-04-16T12:03:15;64.50;;;23.27;;
26269;SDS011;15937;50.612;6.656;2023-04-16T12:07:17;52.50;;;23.83;;
26269;SDS011;15937;50.612;6.656;2023-04-16T12:11:18;47.25;;;18.40;;
26269;SDS011;15937;50.612;6.656;2023-04-16T12:15:21;57.40;;;21.73;;
26269;SDS011;15937;50.612;6.656;2023-04-16T12:19:22;66.35;;;27.10;;
26269;SDS011;15937;50.612;6.656;2023-04-16T12:23:25;55.88;;;25.65;;
26269;SDS011;15937;50.612;6.656;2023-04-16T12:27:43;57.33;;;25.95;;
26269;SDS011;15937;50.612;6.656;2023-04-16T12:31:47;48.35;;;23.15;;
26269;SDS011;15937;50.612;6.656;2023-04-16T12:35:50;49.13;;;22.20;;
26269;SDS011;15937;50.612;6.656;2023-04-16T12:39:51;44.90;;;20.48;;
26269;SDS011;15937;50.612;6.656;2023-04-16T12:44:07;49.42;;;23.88;;
26269;SDS011;15937;50.612;6.656;2023-04-16T12:48:12;46.63;;;23.02;;
26269;SDS011;15937;50.612;6.656;2023-04-16T12:52:19;51.95;;;23.33;;
26269;SDS011;15937;50.612;6.656;2023-04-16T12:56:23;49.20;;;24.38;;
26269;SDS011;15937;50.612;6.656;2023-04-16T13:00:25;46.78;;;23.90;;
26269;SDS011;15937;50.612;6.656;2023-04-16T13:04:27;45.95;;;23.27;;
26269;SDS011;15937;50.612;6.656;2023-04-16T13:08:29;51.88;;;25.15;;
26269;SDS011;15937;50.612;6.656;2023-04-16T13:12:31;45.07;;;21.47;;
26269;SDS011;15937;50.612;6.656;2023-04-16T13:16:33;47.45;;;23.60;;
26269;SDS011;15937;50.612;6.656;2023-04-16T13:20:35;44.30;;;22.10;;
26269;SDS011;15937;50.612;6.656;2023-04-16T13:24:37;50.95;;;24.38;;
26269;SDS011;15937;50.612;6.656;2023-04-16T13:28:39;44.70;;;20.83;;
26269;SDS011;15937;50.612;6.656;2023-04-16T13:32:40;36.47;;;20.05;;
26269;SDS011;15937;50.612;6.656;2023-04-16T13:36:42;42.60;;;20.10;;
26269;SDS011;15937;50.612;6.656;2023-04-16T13:40:44;40.05;;;17.88;;
26269;SDS011;15937;50.612;6.656;2023-04-16T13:44:49;38.28;;;20.17;;
26269;SDS011;15937;50.612;6.656;2023-04-16T13:48:54;39.03;;;17.80;;
26269;SDS011;15937;50.612;6.656;2023-04-16T13:52:56;41.15;;;21.73;;
26269;SDS011;15937;50.612;6.656;2023-04-16T13:56:57;35.33;;;20.38;;
26269;SDS011;15937;50.612;6.656;2023-04-16T14:00:59;42.05;;;19.27;;
26269;SDS011;15937;50.612;6.656;2023-04-16T14:05:01;42.65;;;18.98;;
26269;SDS011;15937;50.612;6.656;2023-04-16T14:09:03;43.72;;;22.55;;
26269;SDS011;15937;50.612;6.656;2023-04-16T14:13:05;39.58;;;18.10;;
26269;SDS011;15937;50.612;6.656;2023-04-16T14:17:07;42.83;;;20.65;;
26269;SDS011;15937;50.612;6.656;2023-04-16T14:21:09;39.50;;;18.55;;
26269;SDS011;15937;50.612;6.656;2023-04-16T14:25:13;44.92;;;20.90;;
26269;SDS011;15937;50.612;6.656;2023-04-16T14:29:15;37.33;;;19.60;;
26269;SDS011;15937;50.612;6.656;2023-04-16T14:33:16;36.95;;;19.27;;
26269;SDS011;15937;50.612;6.656;2023-04-16T14:37:18;41.00;;;17.95;;
26269;SDS011;15937;50.612;6.656;2023-04-16T14:41:20;42.40;;;22.00;;
26269;SDS011;15937;50.612;6.656;2023-04-16T14:45:22;30.85;;;16.60;;
26269;SDS011;15937;50.612;6.656;2023-04-16T14:49:26;45.88;;;20.67;;
26269;SDS011;15937;50.612;6.656;2023-04-16T14:53:28;32.10;;;15.15;;
26269;SDS011;15937;50.612;6.656;2023-04-16T14:57:30;36.25;;;19.92;;
26269;SDS011;15937;50.612;6.656;2023-04-16T15:01:32;37.40;;;20.38;;
26269;SDS011;15937;50.612;6.656;2023-04-16T15:05:34;36.58;;;17.48;;
26269;SDS011;15937;50.612;6.656;2023-04-16T15:09:36;36.85;;;19.48;;
26269;SDS011;15937;50.612;6.656;2023-04-16T15:13:38;27.50;;;15.60;;
26269;SDS011;15937;50.612;6.656;2023-04-16T15:17:41;30.70;;;17.05;;
26269;SDS011;15937;50.612;6.656;2023-04-16T15:21:44;37.28;;;18.20;;
26269;SDS011;15937;50.612;6.656;2023-04-16T15:25:48;39.40;;;17.33;;
26269;SDS011;15937;50.612;6.656;2023-04-16T15:33:54;35.88;;;20.33;;
26269;SDS011;15937;50.612;6.656;2023-04-16T15:37:56;47.80;;;22.50;;
26269;SDS011;15937;50.612;6.656;2023-04-16T15:41:58;54.20;;;25.02;;
26269;SDS011;15937;50.612;6.656;2023-04-16T15:46:03;50.70;;;25.65;;
26269;SDS011;15937;50.612;6.656;2023-04-16T15:50:08;46.72;;;21.27;;
26269;SDS011;15937;50.612;6.656;2023-04-16T15:54:14;42.78;;;20.50;;
26269;SDS011;15937;50.612;6.656;2023-04-16T15:58:15;42.53;;;21.80;;
26269;SDS011;15937;50.612;6.656;2023-04-16T16:02:17;46.33;;;19.65;;
26269;SDS011;15937;50.612;6.656;2023-04-16T16:06:19;50.17;;;21.00;;
26269;SDS011;15937;50.612;6.656;2023-04-16T16:10:21;34.97;;;17.30;;
26269;SDS011;15937;50.612;6.656;2023-04-16T16:14:23;42.33;;;21.75;;
26269;SDS011;15937;50.612;6.656;2023-04-16T16:18:24;44.40;;;21.60;;
26269;SDS011;15937;50.612;6.656;2023-04-16T16:22:26;47.50;;;22.85;;
26269;SDS011;15937;50.612;6.656;2023-04-16T16:26:28;42.42;;;20.30;;
26269;SDS011;15937;50.612;6.656;2023-04-16T16:30:30;41.42;;;21.08;;
26269;SDS011;15937;50.612;6.656;2023-04-16T16:34:32;47.07;;;20.33;;
26269;SDS011;15937;50.612;6.656;2023-04-16T16:38:34;46.95;;;23.02;;
26269;SDS011;15937;50.612;6.656;2023-04-16T16:42:35;46.38;;;24.05;;
26269;SDS011;15937;50.612;6.656;2023-04-16T16:46:37;35.85;;;20.52;;
26269;SDS011;15937;50.612;6.656;2023-04-16T16:50:41;42.08;;;23.77;;
26269;SDS011;15937;50.612;6.656;2023-04-16T16:54:42;42.13;;;22.67;;
26269;SDS011;15937;50.612;6.656;2023-04-16T16:58:44;44.80;;;22.60;;
26269;SDS011;15937;50.612;6.656;2023-04-16T17:02:46;48.50;;;23.42;;
26269;SDS011;15937;50.612;6.656;2023-04-16T17:06:51;49.65;;;23.50;;
26269;SDS011;15937;50.612;6.656;2023-04-16T17:10:53;48.42;;;23.17;;
26269;SDS011;15937;50.612;6.656;2023-04-16T17:14:55;44.75;;;23.42;;
26269;SDS011;15937;50.612;6.656;2023-04-16T17:18:57;45.63;;;23.03;;
26269;SDS011;15937;50.612;6.656;2023-04-16T17:22:59;49.33;;;22.87;;
26269;SDS011;15937;50.612;6.656;2023-04-16T17:27:02;43.60;;;24.00;;
26269;SDS011;15937;50.612;6.656;2023-04-16T17:31:04;50.60;;;24.60;;
26269;SDS011;15937;50.612;6.656;2023-04-16T17:35:08;46.20;;;22.02;;
26269;SDS011;15937;50.612;6.656;2023-04-16T17:39:11;47.28;;;22.40;;
26269;SDS011;15937;50.612;6.656;2023-04-16T17:43:15;49.38;;;20.70;;
26269;SDS011;15937;50.612;6.656;2023-04-16T17:47:17;44.58;;;20.80;;
26269;SDS011;15937;50.612;6.656;2023-04-16T17:51:19;50.08;;;21.98;;
26269;SDS011;15937;50.612;6.656;2023-04-16T17:55:20;41.42;;;20.58;;
26269;SDS011;15937;50.612;6.656;2023-04-16T17:59:22;52.35;;;22.10;;
26269;SDS011;15937;50.612;6.656;2023-04-16T18:03:24;40.42;;;21.42;;
26269;SDS011;15937;50.612;6.656;2023-04-16T18:07:26;41.27;;;21.13;;
26269;SDS011;15937;50.612;6.656;2023-04-16T18:11:30;50.72;;;21.33;;
26269;SDS011;15937;50.612;6.656;2023-04-16T18:15:47;49.30;;;22.33;;
26269;SDS011;15937;50.612;6.656;2023-04-16T18:19:49;50.90;;;24.50;;
26269;SDS011;15937;50.612;6.656;2023-04-16T18:23:54;49.60;;;24.15;;
26269;SDS011;15937;50.612;6.656;2023-04-16T18:32:18;40.90;;;22.10;;
26269;SDS011;15937;50.612;6.656;2023-04-16T18:36:20;45.08;;;22.65;;
26269;SDS011;15937;50.612;6.656;2023-04-16T18:40:22;50.05;;;22.35;;
26269;SDS011;15937;50.612;6.656;2023-04-16T18:44:23;47.15;;;22.08;;
26269;SDS011;15937;50.612;6.656;2023-04-16T18:48:25;44.00;;;22.38;;
26269;SDS011;15937;50.612;6.656;2023-04-16T18:52:27;40.45;;;19.75;;
26269;SDS011;15937;50.612;6.656;2023-04-16T18:56:28;42.22;;;21.10;;
26269;SDS011;15937;50.612;6.656;2023-04-16T19:00:31;40.83;;;20.33;;
26269;SDS011;15937;50.612;6.656;2023-04-16T19:04:32;40.95;;;19.83;;
26269;SDS011;15937;50.612;6.656;2023-04-16T19:08:34;48.42;;;21.92;;
26269;SDS011;15937;50.612;6.656;2023-04-16T19:12:36;45.22;;;22.70;;
26269;SDS011;15937;50.612;6.656;2023-04-16T19:16:41;40.60;;;21.67;;
26269;SDS011;15937;50.612;6.656;2023-04-16T19:20:42;41.90;;;21.85;;
26269;SDS011;15937;50.612;6.656;2023-04-16T19:24:44;43.08;;;22.70;;
26269;SDS011;15937;50.612;6.656;2023-04-16T19:28:46;47.55;;;22.48;;
26269;SDS011;15937;50.612;6.656;2023-04-16T19:32:48;54.50;;;22.15;;
26269;SDS011;15937;50.612;6.656;2023-04-16T19:36:49;45.28;;;21.15;;
26269;SDS011;15937;50.612;6.656;2023-04-16T19:40:51;49.55;;;24.30;;
26269;SDS011;15937;50.612;6.656;2023-04-16T19:44:53;42.60;;;22.40;;
26269;SDS011;15937;50.612;6.656;2023-04-16T19:48:55;39.22;;;21.38;;
26269;SDS011;15937;50.612;6.656;2023-04-16T19:52:56;53.33;;;25.73;;
26269;SDS011;15937;50.612;6.656;2023-04-16T19:56:58;49.80;;;23.33;;
26269;SDS011;15937;50.612;6.656;2023-04-16T20:01:06;48.25;;;25.35;;
26269;SDS011;15937;50.612;6.656;2023-04-16T20:05:09;47.33;;;23.73;;
26269;SDS011;15937;50.612;6.656;2023-04-16T20:09:11;53.95;;;22.88;;
26269;SDS011;15937;50.612;6.656;2023-04-16T20:13:13;48.42;;;26.50;;
26269;SDS011;15937;50.612;6.656;2023-04-16T20:17:18;51.55;;;26.80;;
26269;SDS011;15937;50.612;6.656;2023-04-16T20:21:20;40.80;;;23.75;;
26269;SDS011;15937;50.612;6.656;2023-04-16T20:25:22;52.43;;;26.87;;
26269;SDS011;15937;50.612;6.656;2023-04-16T20:29:26;50.30;;;23.95;;
26269;SDS011;15937;50.612;6.656;2023-04-16T20:33:28;58.45;;;29.95;;
26269;SDS011;15937;50.612;6.656;2023-04-16T20:37:29;40.88;;;22.88;;
26269;SDS011;15937;50.612;6.656;2023-04-16T20:41:32;37.05;;;20.05;;
26269;SDS011;15937;50.612;6.656;2023-04-16T20:45:34;48.03;;;23.40;;
26269;SDS011;15937;50.612;6.656;2023-04-16T20:49:44;48.10;;;22.67;;
26269;SDS011;15937;50.612;6.656;2023-04-16T20:53:49;40.42;;;21.33;;
26269;SDS011;15937;50.612;6.656;2023-04-16T20:57:54;43.17;;;23.92;;
26269;SDS011;15937;50.612;6.656;2023-04-16T21:01:56;51.22;;;24.88;;
26269;SDS011;15937;50.612;6.656;2023-04-16T21:05:58;48.30;;;23.40;;
26269;SDS011;15937;50.612;6.656;2023-04-16T21:10:01;46.30;;;25.23;;
26269;SDS011;15937;50.612;6.656;2023-04-16T21:14:03;55.88;;;24.15;;
26269;SDS011;15937;50.612;6.656;2023-04-16T21:18:06;42.45;;;21.75;;
26269;SDS011;15937;50.612;6.656;2023-04-16T21:22:08;51.05;;;23.65;;
26269;SDS011;15937;50.612;6.656;2023-04-16T21:26:10;45.72;;;21.60;;
26269;SDS011;15937;50.612;6.656;2023-04-16T21:30:12;40.45;;;21.10;;
26269;SDS011;15937;50.612;6.656;2023-04-16T21:34:14;52.27;;;26.77;;
26269;SDS011;15937;50.612;6.656;2023-04-16T21:38:16;51.53;;;25.25;;
26269;SDS011;15937;50.612;6.656;2023-04-16T21:42:18;60.08;;;25.67;;
26269;SDS011;15937;50.612;6.656;2023-04-16T21:46:20;55.30;;;25.75;;
26269;SDS011;15937;50.612;6.656;2023-04-16T21:50:23;53.60;;;25.67;;
26269;SDS011;15937;50.612;6.656;2023-04-16T21:54:24;61.85;;;25.17;;
26269;SDS011;15937;50.612;6.656;2023-04-16T21:58:26;55.72;;;24.50;;
26269;SDS011;15937;50.612;6.656;2023-04-16T22:02:28;48.92;;;26.05;;
26269;SDS011;15937;50.612;6.656;2023-04-16T22:06:30;56.88;;;27.27;;
26269;SDS011;15937;50.612;6.656;2023-04-16T22:10:31;55.15;;;28.20;;
26269;SDS011;15937;50.612;6.656;2023-04-16T22:14:33;58.47;;;28.52;;
26269;SDS011;15937;50.612;6.656;2023-04-16T22:18:35;50.13;;;26.70;;
26269;SDS011;15937;50.612;6.656;2023-04-16T22:26:41;57.47;;;24.52;;
26269;SDS011;15937;50.612;6.656;2023-04-16T22:30:43;63.92;;;28.90;;
26269;SDS011;15937;50.612;6.656;2023-04-16T22:34:44;54.63;;;27.20;;
26269;SDS011;15937;50.612;6.656;2023-04-16T22:38:46;50.55;;;26.02;;
26269;SDS011;15937;50.612;6.656;2023-04-16T22:42:48;51.28;;;24.63;;
26269;SDS011;15937;50.612;6.656;2023-04-16T22:46:50;61.22;;;26.02;;
26269;SDS011;15937;50.612;6.656;2023-04-16T22:50:52;49.97;;;24.83;;
26269;SDS011;15937;50.612;6.656;2023-04-16T22:54:54;55.85;;;26.02;;
26269;SDS011;15937;50.612;6.656;2023-04-16T22:58:55;54.53;;;27.67;;
26269;SDS011;15937;50.612;6.656;2023-04-16T23:02:59;46.80;;;22.27;;
26269;SDS011;15937;50.612;6.656;2023-04-16T23:07:01;59.22;;;25.52;;
26269;SDS011;15937;50.612;6.656;2023-04-16T23:11:03;48.22;;;25.15;;
26269;SDS011;15937;50.612;6.656;2023-04-16T23:15:05;53.80;;;24.70;;
26269;SDS011;15937;50.612;6.656;2023-04-16T23:19:07;43.00;;;21.88;;
26269;SDS011;15937;50.612;6.656;2023-04-16T23:23:14;49.92;;;25.40;;
26269;SDS011;15937;50.612;6.656;2023-04-16T23:27:20;44.33;;;23.52;;
26269;SDS011;15937;50.612;6.656;2023-04-16T23:31:22;44.17;;;22.58;;
26269;SDS011;15937;50.612;6.656;2023-04-16T23:35:24;43.20;;;21.60;;
26269;SDS011;15937;50.612;6.656;2023-04-16T23:39:25;48.13;;;23.83;;
26269;SDS011;15937;50.612;6.656;2023-04-16T23:43:27;40.38;;;18.15;;
26269;SDS011;15937;50.612;6.656;2023-04-16T23:47:29;59.80;;;25.77;;
26269;SDS011;15937;50.612;6.656;2023-04-16T23:51:31;52.28;;;22.52;;
26269;SDS011;15937;50.612;6.656;2023-04-16T23:55:32;55.78;;;25.35;;
26269;SDS011;15937;50.612;6.656;2023-04-16T23:59:34;52.38;;;25.52;;
